createdAt,value
2022-10-11T00:00:44.118Z,100532.03
2022-10-11T00:03:16.350Z,100537.13
2022-10-11T00:05:54.971Z,100536.25
2022-10-11T00:08:22.745Z,100539.63
2022-10-11T00:11:06.565Z,100532.81
2022-10-11T00:13:34.181Z,100533.66
2022-10-11T00:16:07.058Z,100539.56
2022-10-11T00:18:38.230Z,100533.63
2022-10-11T00:21:38.279Z,100534.44
2022-10-11T00:24:48.867Z,100542.91
2022-10-11T00:27:49.050Z,100551.34
2022-10-11T00:30:47.460Z,100548.75
2022-10-11T00:33:34.423Z,100538.59
2022-10-11T00:36:26.975Z,100552.94
2022-10-11T00:38:53.783Z,100544.44
2022-10-11T00:41:20.724Z,100552.94
2022-10-11T00:43:47.603Z,100551.22
2022-10-11T00:46:30.444Z,100558.00
2022-10-11T00:49:06.980Z,100562.22
2022-10-11T00:51:43.300Z,100553.72
2022-10-11T00:54:17.478Z,100559.63
2022-10-11T00:56:58.745Z,100554.53
2022-10-11T00:59:34.743Z,100556.19
2022-10-11T01:02:05.678Z,100550.28
2022-10-11T01:04:34.059Z,100552.81
2022-10-11T01:07:02.427Z,100563.81
2022-10-11T01:09:30.395Z,100559.53
2022-10-11T01:12:02.543Z,100550.22
2022-10-11T01:14:59.297Z,100555.28
2022-10-11T01:17:54.676Z,100560.31
2022-10-11T01:20:46.063Z,100562.84
2022-10-11T01:23:49.609Z,100561.97
2022-10-11T01:26:55.561Z,100567.00
2022-10-11T01:29:53.697Z,100570.34
2022-10-11T01:32:36.632Z,100566.09
2022-10-11T01:35:28.329Z,100569.47
2022-10-11T01:38:26.786Z,100566.09
2022-10-11T01:41:21.503Z,100565.19
2022-10-11T01:43:55.387Z,100568.53
2022-10-11T01:46:23.897Z,100565.13
2022-10-11T01:48:56.339Z,100570.19
2022-10-11T01:51:29.661Z,100570.13
2022-10-11T01:55:03.923Z,100574.34
2022-10-11T01:58:22.233Z,100565.78
2022-10-11T02:01:08.679Z,100564.84
2022-10-11T02:03:52.534Z,100564.81
2022-10-11T02:06:59.365Z,100573.22
2022-10-11T02:09:48.065Z,100570.63
2022-10-11T02:12:30.435Z,100568.06
2022-10-11T02:15:01.604Z,100584.13
2022-10-11T02:17:36.611Z,100572.28
2022-10-11T02:20:12.586Z,100573.94
2022-10-11T02:22:45.908Z,100577.28
2022-10-11T02:25:21.259Z,100582.34
2022-10-11T02:27:51.718Z,100588.25
2022-10-11T02:30:18.837Z,100579.81
2022-10-11T02:32:48.087Z,100573.84
2022-10-11T02:35:15.272Z,100593.28
2022-10-11T02:38:09.915Z,100582.25
2022-10-11T02:40:42.628Z,100590.69
2022-10-11T02:43:24.082Z,100592.38
2022-10-11T02:45:57.704Z,100578.78
2022-10-11T02:48:28.462Z,100590.56
2022-10-11T02:50:59.466Z,100601.59
2022-10-11T02:53:27.187Z,100588.84
2022-10-11T02:55:55.924Z,100597.34
2022-10-11T02:58:24.771Z,100594.78
2022-10-11T03:00:51.931Z,100599.03
2022-10-11T03:03:18.814Z,100598.97
2022-10-11T03:05:47.682Z,100606.59
2022-10-11T03:08:16.397Z,100603.22
2022-10-11T03:10:43.506Z,100611.66
2022-10-11T03:13:11.454Z,100622.66
2022-10-11T03:15:40.774Z,100620.13
2022-10-11T03:18:07.569Z,100612.50
2022-10-11T03:20:34.780Z,100626.03
2022-10-11T03:23:01.496Z,100624.38
2022-10-11T03:25:28.726Z,100615.91
2022-10-11T03:27:55.505Z,100624.38
2022-10-11T03:30:22.302Z,100613.38
2022-10-11T03:32:49.115Z,100622.66
2022-10-11T03:35:16.118Z,100619.25
2022-10-11T03:37:42.911Z,100620.94
2022-10-11T03:40:11.425Z,100631.06
2022-10-11T03:42:38.774Z,100620.94
2022-10-11T03:45:08.875Z,100631.06
2022-10-11T03:47:38.659Z,100629.34
2022-10-11T03:50:08.857Z,100624.28
2022-10-11T03:52:36.692Z,100631.81
2022-10-11T03:55:04.347Z,100631.81
2022-10-11T03:57:31.083Z,100629.28
2022-10-11T03:59:57.814Z,100630.13
2022-10-11T04:02:24.713Z,100637.69
2022-10-11T04:04:51.439Z,100625.81
2022-10-11T04:07:18.627Z,100633.41
2022-10-11T04:09:45.415Z,100634.19
2022-10-11T04:12:12.741Z,100632.47
2022-10-11T04:14:39.524Z,100638.34
2022-10-11T04:17:06.515Z,100640.88
2022-10-11T04:19:33.269Z,100645.09
2022-10-11T04:22:00.028Z,100641.66
2022-10-11T04:24:28.141Z,100637.34
2022-10-11T04:26:55.107Z,100639.00
2022-10-11T04:29:21.992Z,100648.25
2022-10-11T04:31:49.004Z,100649.94
2022-10-11T04:34:16.377Z,100651.56
2022-10-11T04:36:48.987Z,100658.31
2022-10-11T04:39:16.876Z,100653.13
2022-10-11T04:41:43.771Z,100657.34
2022-10-11T04:44:10.493Z,100658.97
2022-10-11T04:46:37.263Z,100654.72
2022-10-11T04:49:04.061Z,100663.09
2022-10-11T04:51:30.981Z,100663.88
2022-10-11T04:53:57.760Z,100660.44
2022-10-11T04:56:24.607Z,100668.81
2022-10-11T04:58:54.115Z,100665.38
2022-10-11T05:01:21.602Z,100667.00
2022-10-11T05:03:48.866Z,100672.91
2022-10-11T05:06:15.673Z,100666.94
2022-10-11T05:08:42.519Z,100667.72
2022-10-11T05:11:15.686Z,100680.38
2022-10-11T05:13:44.137Z,100677.75
2022-10-11T05:16:12.390Z,100673.47
2022-10-11T05:18:40.110Z,100676.00
2022-10-11T05:21:16.009Z,100677.69
2022-10-11T05:23:42.959Z,100678.50
2022-10-11T05:26:10.655Z,100682.75
2022-10-11T05:28:37.607Z,100688.59
2022-10-11T05:31:06.439Z,100687.72
2022-10-11T05:33:51.322Z,100691.06
2022-10-11T05:36:18.424Z,100692.75
2022-10-11T05:38:45.272Z,100693.59
2022-10-11T05:41:14.997Z,100697.00
2022-10-11T05:43:42.515Z,100697.81
2022-10-11T05:46:09.654Z,100691.94
2022-10-11T05:48:36.923Z,100699.50
2022-10-11T05:51:10.713Z,100701.16
2022-10-11T05:53:49.597Z,100695.28
2022-10-11T05:56:26.175Z,100692.69
2022-10-11T05:59:02.702Z,100703.66
2022-10-11T06:01:35.011Z,100705.34
2022-10-11T06:04:01.851Z,100704.53
2022-10-11T06:06:28.682Z,100702.88
2022-10-11T06:08:55.666Z,100703.78
2022-10-11T06:11:26.745Z,100713.16
2022-10-11T06:13:58.204Z,100711.56
2022-10-11T06:16:25.889Z,100712.66
2022-10-11T06:18:54.774Z,100717.09
2022-10-11T06:21:22.442Z,100723.41
2022-10-11T06:23:58.360Z,100722.94
2022-10-11T06:26:28.853Z,100720.03
2022-10-11T06:28:55.736Z,100728.09
2022-10-11T06:31:23.165Z,100727.78
2022-10-11T06:33:50.037Z,100724.03
2022-10-11T06:36:17.753Z,100734.66
2022-10-11T06:38:45.474Z,100740.06
2022-10-11T06:41:32.686Z,100734.34
2022-10-11T06:43:59.542Z,100746.31
2022-10-11T06:46:28.080Z,100752.19
2022-10-11T06:48:56.327Z,100757.03
2022-10-11T06:51:24.489Z,100755.00
2022-10-11T06:53:55.411Z,100752.78
2022-10-11T06:56:22.882Z,100750.41
2022-10-11T06:58:51.059Z,100752.22
2022-10-11T07:01:21.378Z,100749.59
2022-10-11T07:03:49.386Z,100756.25
2022-10-11T07:06:22.664Z,100748.41
2022-10-11T07:08:49.729Z,100757.56
2022-10-11T07:11:23.034Z,100757.97
2022-10-11T07:13:52.821Z,100765.00
2022-10-11T07:16:20.808Z,100758.47
2022-10-11T07:18:53.832Z,100767.28
2022-10-11T07:21:24.323Z,100765.78
2022-10-11T07:23:51.130Z,100765.13
2022-10-11T07:26:18.526Z,100765.06
2022-10-11T07:28:45.469Z,100766.94
2022-10-11T07:31:19.736Z,100766.88
2022-10-11T07:33:46.957Z,100770.28
2022-10-11T07:36:14.534Z,100767.53
2022-10-11T07:38:44.165Z,100771.59
2022-10-11T07:41:11.531Z,100776.47
2022-10-11T07:43:39.864Z,100776.63
2022-10-11T07:46:07.517Z,100772.50
2022-10-11T07:48:36.454Z,100765.56
2022-10-11T07:51:16.512Z,100774.31
2022-10-11T07:53:48.100Z,100765.28
2022-10-11T07:56:22.245Z,100769.13
2022-10-11T07:58:56.157Z,100769.16
2022-10-11T08:01:24.238Z,100764.47
2022-10-11T08:03:52.306Z,100765.75
2022-10-11T08:06:23.074Z,100769.41
2022-10-11T08:08:50.086Z,100766.34
2022-10-11T08:11:27.387Z,100778.88
2022-10-11T08:14:13.107Z,100780.31
2022-10-11T08:16:43.229Z,100776.75
2022-10-11T08:19:18.475Z,100772.31
2022-10-11T08:21:45.672Z,100777.56
2022-10-11T08:24:15.607Z,100785.66
2022-10-11T08:26:42.497Z,100782.03
2022-10-11T08:29:10.698Z,100790.78
2022-10-11T08:31:37.520Z,100786.97
2022-10-11T08:34:04.665Z,100785.75
2022-10-11T08:36:31.518Z,100786.75
2022-10-11T08:39:00.543Z,100794.31
2022-10-11T08:41:40.850Z,100784.88
2022-10-11T08:45:09.669Z,100797.66
2022-10-11T08:47:44.103Z,100791.28
2022-10-11T08:50:23.158Z,100791.28
2022-10-11T08:53:05.791Z,100786.94
2022-10-11T08:55:44.889Z,100781.78
2022-10-11T08:58:22.084Z,100787.75
2022-10-11T09:00:55.566Z,100783.00
2022-10-11T09:03:45.957Z,100783.56
2022-10-11T09:06:47.618Z,100779.91
2022-10-11T09:09:23.682Z,100786.78
2022-10-11T09:12:03.237Z,100781.91
2022-10-11T09:14:44.593Z,100790.19
2022-10-11T09:17:32.291Z,100790.00
2022-10-11T09:20:33.722Z,100793.72
2022-10-11T09:23:31.297Z,100792.94
2022-10-11T09:26:28.815Z,100796.38
2022-10-11T09:29:40.568Z,100791.56
2022-10-11T09:32:16.977Z,100794.59
2022-10-11T09:34:44.220Z,100794.16
2022-10-11T09:37:25.348Z,100790.75
2022-10-11T09:40:19.951Z,100788.78
2022-10-11T09:42:46.716Z,100795.22
2022-10-11T09:45:21.818Z,100788.09
2022-10-11T09:47:52.307Z,100787.50
2022-10-11T09:50:25.743Z,100798.84
2022-10-11T09:52:56.621Z,100793.75
2022-10-11T09:55:40.564Z,100805.44
2022-10-11T09:58:34.547Z,100797.88
2022-10-11T10:01:22.300Z,100798.03
2022-10-11T10:04:16.818Z,100800.78
2022-10-11T10:06:43.754Z,100794.38
2022-10-11T10:09:30.965Z,100794.69
2022-10-11T10:11:58.156Z,100801.34
2022-10-11T10:14:30.509Z,100800.16
2022-10-11T10:17:03.692Z,100800.53
2022-10-11T10:19:44.759Z,100798.84
2022-10-11T10:22:27.319Z,100794.06
2022-10-11T10:24:56.148Z,100807.28
2022-10-11T10:27:29.593Z,100805.56
2022-10-11T10:30:09.906Z,100799.91
2022-10-11T10:32:58.353Z,100791.84
2022-10-11T10:35:43.211Z,100791.53
2022-10-11T10:38:26.200Z,100790.19
2022-10-11T10:41:02.811Z,100798.78
2022-10-11T10:43:35.595Z,100794.84
2022-10-11T10:46:38.819Z,100799.47
2022-10-11T10:53:23.926Z,100797.34
2022-10-11T10:56:27.383Z,100800.22
2022-10-11T10:59:03.029Z,100795.13
2022-10-11T11:01:38.636Z,100795.53
2022-10-11T11:04:35.166Z,100793.75
2022-10-11T11:07:33.791Z,100781.41
2022-10-11T11:10:24.696Z,100779.25
2022-10-11T11:13:37.574Z,100777.44
2022-10-11T11:16:18.733Z,100776.47
2022-10-11T11:19:39.945Z,100765.56
2022-10-11T11:22:32.743Z,100774.06
2022-10-11T11:25:48.559Z,100771.75
2022-10-11T11:29:11.303Z,100771.97
2022-10-11T11:31:59.689Z,100764.75
2022-10-11T11:34:34.044Z,100771.81
2022-10-11T11:37:10.526Z,100764.16
2022-10-11T11:39:48.963Z,100769.09
2022-10-11T11:42:34.057Z,100764.56
2022-10-11T11:45:18.783Z,100762.50
2022-10-11T11:47:57.130Z,100760.00
2022-10-11T11:50:27.933Z,100754.94
2022-10-11T11:53:05.346Z,100757.75
2022-10-11T11:55:52.678Z,100744.50
2022-10-11T11:58:45.607Z,100743.50
2022-10-11T12:01:26.506Z,100746.06
2022-10-11T12:04:03.330Z,100749.69
2022-10-11T12:06:37.942Z,100739.25
2022-10-11T12:09:22.741Z,100740.03
2022-10-11T12:11:59.900Z,100743.28
2022-10-11T12:14:47.044Z,100737.34
2022-10-11T12:17:23.691Z,100740.75
2022-10-11T12:20:28.631Z,100734.00
2022-10-11T12:23:30.476Z,100735.50
2022-10-11T12:26:27.820Z,100730.78
2022-10-11T12:29:24.548Z,100726.09
2022-10-11T12:32:00.797Z,100728.00
2022-10-11T12:34:43.804Z,100728.22
2022-10-11T12:37:19.688Z,100723.19
2022-10-11T12:39:54.522Z,100714.78
2022-10-11T12:42:26.944Z,100719.19
2022-10-11T12:45:12.236Z,100716.81
2022-10-11T12:48:05.071Z,100717.91
2022-10-11T12:51:22.844Z,100713.03
2022-10-11T12:54:37.404Z,100710.69
2022-10-11T12:57:27.115Z,100710.03
2022-10-11T12:59:54.029Z,100695.56
2022-10-11T13:02:39.766Z,100701.63
2022-10-11T13:05:22.223Z,100706.03
2022-10-11T13:07:50.747Z,100712.09
2022-10-11T13:10:28.975Z,100711.38
2022-10-11T13:12:59.673Z,100711.56
2022-10-11T13:15:28.215Z,100709.19
2022-10-11T13:18:00.505Z,100707.59
2022-10-11T13:20:36.141Z,100705.19
2022-10-11T13:23:35.816Z,100711.41
2022-10-11T13:26:03.349Z,100700.41
2022-10-11T13:28:36.170Z,100706.44
2022-10-11T13:31:05.426Z,100700.53
2022-10-11T13:33:38.095Z,100698.91
2022-10-11T13:36:14.661Z,100702.44
2022-10-11T13:38:41.408Z,100696.53
2022-10-11T13:41:10.454Z,100694.94
2022-10-11T13:43:38.653Z,100697.59
2022-10-11T13:46:05.958Z,100690.88
2022-10-11T13:48:40.926Z,100689.19
2022-10-11T13:51:33.460Z,100685.13
2022-10-11T13:54:11.610Z,100686.06
2022-10-11T13:56:50.968Z,100685.25
2022-10-11T13:59:32.737Z,100687.84
2022-10-11T14:02:04.222Z,100683.63
2022-10-11T14:04:41.063Z,100687.06
2022-10-11T14:07:31.572Z,100685.47
2022-10-11T14:09:58.513Z,100688.91
2022-10-11T14:12:33.071Z,100689.78
2022-10-11T14:15:02.486Z,100683.88
2022-10-11T14:17:43.263Z,100676.31
2022-10-11T14:20:28.296Z,100684.91
2022-10-11T14:22:57.936Z,100675.56
2022-10-11T14:25:24.763Z,100674.69
2022-10-11T14:27:51.933Z,100674.72
2022-10-11T14:30:26.033Z,100671.31
2022-10-11T14:32:57.578Z,100677.41
2022-10-11T14:35:28.964Z,100673.13
2022-10-11T14:37:56.175Z,100677.44
2022-10-11T14:40:27.948Z,100669.88
2022-10-11T14:42:55.108Z,100665.72
2022-10-11T14:45:21.913Z,100676.03
2022-10-11T14:47:49.880Z,100676.13
2022-10-11T14:50:44.435Z,100675.41
2022-10-11T14:53:12.183Z,100682.31
2022-10-11T14:55:40.910Z,100681.50
2022-10-11T14:58:10.111Z,100675.56
2022-10-11T15:00:37.756Z,100677.28
2022-10-11T15:03:07.082Z,100672.22
2022-10-11T15:05:35.525Z,100677.34
2022-10-11T15:08:04.898Z,100672.25
2022-10-11T15:10:40.383Z,100662.94
2022-10-11T15:13:08.247Z,100672.38
2022-10-11T15:15:37.939Z,100663.88
2022-10-11T15:18:08.797Z,100660.50
2022-10-11T15:20:40.047Z,100661.38
2022-10-11T15:23:09.782Z,100664.00
2022-10-11T15:25:39.529Z,100658.06
2022-10-11T15:28:08.277Z,100656.38
2022-10-11T15:30:41.269Z,100659.81
2022-10-11T15:33:08.319Z,100659.84
2022-10-11T15:35:35.106Z,100658.16
2022-10-11T15:38:01.813Z,100663.31
2022-10-11T15:40:34.733Z,100656.50
2022-10-11T15:43:02.155Z,100653.13
2022-10-11T15:45:29.980Z,100653.16
2022-10-11T15:47:56.851Z,100648.91
2022-10-11T15:50:34.396Z,100641.28
2022-10-11T15:53:13.702Z,100641.31
2022-10-11T15:55:44.302Z,100637.13
2022-10-11T15:58:24.366Z,100638.88
2022-10-11T16:00:55.373Z,100640.63
2022-10-11T16:03:26.455Z,100638.09
2022-10-11T16:05:54.979Z,100644.06
2022-10-11T16:08:22.218Z,100644.94
2022-10-11T16:10:50.057Z,100636.44
2022-10-11T16:13:17.815Z,100634.81
2022-10-11T16:15:46.343Z,100643.34
2022-10-11T16:18:16.697Z,100638.28
2022-10-11T16:20:49.360Z,100643.41
2022-10-11T16:23:16.230Z,100643.47
2022-10-11T16:25:43.455Z,100642.66
2022-10-11T16:28:11.052Z,100641.81
2022-10-11T16:30:45.187Z,100638.44
2022-10-11T16:33:12.235Z,100636.78
2022-10-11T16:35:42.842Z,100635.97
2022-10-11T16:38:10.590Z,100644.50
2022-10-11T16:40:39.249Z,100638.56
2022-10-11T16:43:07.954Z,100653.09
2022-10-11T16:45:35.866Z,100648.84
2022-10-11T16:48:04.233Z,100637.84
2022-10-11T16:50:39.100Z,100643.84
2022-10-11T16:53:06.533Z,100645.59
2022-10-11T16:55:33.285Z,100645.66
2022-10-11T16:58:00.015Z,100631.22
2022-10-11T17:00:26.759Z,100631.25
2022-10-11T17:02:53.553Z,100634.72
2022-10-11T17:05:20.359Z,100636.44
2022-10-11T17:07:47.152Z,100650.13
2022-10-11T17:10:13.898Z,100638.25
2022-10-11T17:12:40.685Z,100648.47
2022-10-11T17:15:11.826Z,100639.09
2022-10-11T17:17:38.534Z,100636.63
2022-10-11T17:20:05.762Z,100636.66
2022-10-11T17:22:32.483Z,100639.22
2022-10-11T17:25:01.365Z,100640.94
2022-10-11T17:27:28.518Z,100633.28
2022-10-11T17:29:55.362Z,100636.72
2022-10-11T17:32:22.077Z,100629.06
2022-10-11T17:34:48.817Z,100636.69
2022-10-11T17:37:15.505Z,100638.44
2022-10-11T17:39:42.346Z,100634.19
2022-10-11T17:42:09.188Z,100645.25
2022-10-11T17:44:36.229Z,100640.13
2022-10-11T17:47:03.173Z,100634.19
2022-10-11T17:49:30.433Z,100634.19
2022-10-11T17:51:57.285Z,100633.34
2022-10-11T17:54:25.810Z,100639.28
2022-10-11T17:56:52.814Z,100633.38
2022-10-11T17:59:21.443Z,100630.81
2022-10-11T18:01:50.112Z,100632.50
2022-10-11T18:04:19.125Z,100636.72
2022-10-11T18:06:47.607Z,100645.22
2022-10-11T18:09:17.329Z,100640.97
2022-10-11T18:11:44.974Z,100647.75
2022-10-11T18:14:12.049Z,100652.84
2022-10-11T18:16:40.164Z,100651.16
2022-10-11T18:19:11.438Z,100646.03
2022-10-11T18:21:39.394Z,100642.63
2022-10-11T18:24:13.385Z,100642.63
2022-10-11T18:26:41.060Z,100636.69
2022-10-11T18:29:07.929Z,100646.03
2022-10-11T18:31:35.458Z,100642.63
2022-10-11T18:34:05.191Z,100648.56
2022-10-11T18:36:33.012Z,100647.69
2022-10-11T18:39:03.618Z,100645.97
2022-10-11T18:41:33.141Z,100645.13
2022-10-11T18:44:04.294Z,100639.16
2022-10-11T18:46:32.545Z,100644.25
2022-10-11T18:49:01.836Z,100642.53
2022-10-11T18:51:38.005Z,100645.09
2022-10-11T18:54:07.242Z,100651.84
2022-10-11T18:56:36.987Z,100651.81
2022-10-11T18:59:05.694Z,100647.56
2022-10-11T19:01:43.112Z,100656.03
2022-10-11T19:04:12.913Z,100655.22
2022-10-11T19:06:43.957Z,100647.53
2022-10-11T19:09:21.278Z,100655.19
2022-10-11T19:11:54.358Z,100649.22
2022-10-11T19:14:26.580Z,100647.50
2022-10-11T19:16:55.712Z,100651.72
2022-10-11T19:19:29.089Z,100649.19
2022-10-11T19:21:57.431Z,100653.44
2022-10-11T19:24:27.833Z,100647.44
2022-10-11T19:27:01.199Z,100651.66
2022-10-11T19:29:29.290Z,100653.31
2022-10-11T19:31:59.453Z,100649.94
2022-10-11T19:34:28.772Z,100654.16
2022-10-11T19:36:56.755Z,100649.94
2022-10-11T19:39:24.924Z,100642.25
2022-10-11T19:41:52.292Z,100639.72
2022-10-11T19:44:19.957Z,100643.09
2022-10-11T19:46:54.131Z,100634.59
2022-10-11T19:49:24.918Z,100637.09
2022-10-11T19:51:53.404Z,100630.28
2022-10-11T19:54:20.221Z,100636.19
2022-10-11T19:56:47.390Z,100635.31
2022-10-11T19:59:14.538Z,100640.41
2022-10-11T20:01:42.548Z,100636.13
2022-10-11T20:04:33.082Z,100631.03
2022-10-11T20:06:59.461Z,100633.56
2022-10-11T20:09:30.579Z,100635.25
2022-10-11T20:11:58.200Z,100633.56
2022-10-11T20:14:25.010Z,100636.91
2022-10-11T20:16:52.499Z,100636.91
2022-10-11T20:19:19.388Z,100640.28
2022-10-11T20:21:47.269Z,100649.56
2022-10-11T20:24:14.013Z,100639.38
2022-10-11T20:26:40.739Z,100638.50
2022-10-11T20:29:07.765Z,100634.28
2022-10-11T20:31:40.744Z,100637.69
2022-10-11T20:34:08.644Z,100631.72
2022-10-11T20:36:36.563Z,100635.97
2022-10-11T20:39:05.168Z,100635.97
2022-10-11T20:41:37.144Z,100637.63
2022-10-11T20:44:04.730Z,100630.00
2022-10-11T20:46:36.572Z,100633.41
2022-10-11T20:49:11.172Z,100633.41
2022-10-11T20:51:41.786Z,100637.63
2022-10-11T20:54:09.334Z,100632.56
2022-10-11T20:56:36.316Z,100635.09
2022-10-11T20:59:04.174Z,100633.41
2022-10-11T21:01:40.619Z,100640.16
2022-10-11T21:04:19.524Z,100641.88
2022-10-11T21:06:48.241Z,100639.31
2022-10-11T21:09:16.985Z,100635.91
2022-10-11T21:11:44.298Z,100633.38
2022-10-11T21:14:11.406Z,100623.19
2022-10-11T21:16:38.187Z,100618.13
2022-10-11T21:19:06.085Z,100619.78
2022-10-11T21:21:32.811Z,100616.41
2022-10-11T21:24:02.109Z,100610.44
2022-10-11T21:26:30.446Z,100610.41
2022-10-11T21:28:59.346Z,100611.19
2022-10-11T21:31:31.084Z,100611.97
2022-10-11T21:34:00.714Z,100609.41
2022-10-11T21:36:27.659Z,100611.03
2022-10-11T21:38:54.741Z,100601.72
2022-10-11T21:41:28.909Z,100602.47
2022-10-11T21:43:56.219Z,100600.78
2022-10-11T21:46:41.620Z,100602.44
2022-10-11T21:49:13.278Z,100609.13
2022-10-11T21:51:40.069Z,100611.63
2022-10-11T21:54:06.981Z,100612.44
2022-10-11T21:56:33.846Z,100607.34
2022-10-11T21:59:00.682Z,100606.44
2022-10-11T22:01:27.799Z,100606.41
2022-10-11T22:03:54.819Z,100610.63
2022-10-11T22:06:22.080Z,100607.25
2022-10-11T22:08:49.994Z,100621.63
2022-10-11T22:11:17.474Z,100604.72
2022-10-11T22:13:44.790Z,100612.31
2022-10-11T22:16:13.752Z,100611.44
2022-10-11T22:18:41.375Z,100613.13
2022-10-11T22:21:23.659Z,100607.19
2022-10-11T22:23:53.639Z,100618.13
2022-10-11T22:26:27.312Z,100609.66
2022-10-11T22:28:54.223Z,100615.56
2022-10-11T22:31:22.107Z,100613.84
2022-10-11T22:33:53.212Z,100618.00
2022-10-11T22:36:20.010Z,100612.03
2022-10-11T22:38:47.203Z,100623.88
2022-10-11T22:41:14.007Z,100616.22
2022-10-11T22:43:40.758Z,100616.19
2022-10-11T22:46:07.857Z,100616.19
2022-10-11T22:48:34.979Z,100612.78
2022-10-11T22:51:02.170Z,100609.41
2022-10-11T22:53:29.259Z,100617.00
2022-10-11T22:55:56.002Z,100612.75
2022-10-11T22:58:22.808Z,100611.88
2022-10-11T23:00:49.573Z,100603.41
2022-10-11T23:03:18.430Z,100613.53
2022-10-11T23:05:56.473Z,100610.94
2022-10-11T23:08:23.739Z,100605.88
2022-10-11T23:10:50.585Z,100612.63
2022-10-11T23:13:17.847Z,100613.44
2022-10-11T23:15:44.594Z,100607.50
2022-10-11T23:18:11.756Z,100594.81
2022-10-11T23:20:39.712Z,100602.38
2022-10-11T23:23:07.251Z,100595.63
2022-10-11T23:25:36.813Z,100595.59
2022-10-11T23:28:03.674Z,100599.81
2022-10-11T23:30:30.899Z,100587.94
2022-10-11T23:32:57.900Z,100591.28
2022-10-11T23:35:25.018Z,100584.53
2022-10-11T23:37:54.747Z,100591.28
2022-10-11T23:40:21.517Z,100592.97
2022-10-11T23:42:48.363Z,100592.97
2022-10-11T23:45:15.397Z,100583.63
2022-10-11T23:47:42.138Z,100598.84
2022-10-11T23:50:09.307Z,100594.59
2022-10-11T23:52:36.265Z,100592.84
2022-10-11T23:55:03.681Z,100591.97
2022-10-11T23:57:30.482Z,100593.66
2022-10-11T23:59:57.175Z,100591.94
